Alger, OH

7:37 PM EDT on May 25, 2015 (GMT -0400)
Ada | | Change Station
CLOSE
Current Station
Personal Weather Station
Location: Ada, OH
Elevation: 912 ft
Nearby Weather Stations

Elev 912 ft 40.82 °N, 83.86 °W | Updated 11 seconds ago

Partly Cloudy
Partly Cloudy
74.6 °F
Feels Like 76 °F
N
8.0
Wind Variable Wind from South
Gusts 18.0 mph

Today
High -- | Low -- °F
--% Chance of Precip.
Yesterday
High -- | Low -- °F
Precip. -- in
6:10 AM 8:54 PM
First Quarter, 52% visible
Pressure 30.01 in
Visibility 10.0 miles
Clouds Few 3900 ft
Scattered Clouds 4900 ft
Heat Index 76 °F
Dew Point 65 °F
Humidity 71%
Rainfall 0.00 in
Snow Depth Not available.
UV 1 out of 12
Pollen 9.50 out of 12
Air Quality Not available.
Flu Activity Local Activity
METAR KAOH 252253Z AUTO 20014G23KT 10SM FEW039 SCT049 24/17 A3003 RMK AO2 SLP163 T02440167

More Conditions Fewer Conditions

Pressure 30.01 in
Visibility 10.0 miles
Clouds Few 3900 ft
Scattered Clouds 4900 ft
Heat Index 76 °F
Dew Point 65 °F
Humidity 71%
Rainfall 0.00 in
Snow Depth Not available.
UV 1 out of 12
Pollen 9.50 out of 12
Air Quality Not available.
Flu Activity Local Activity
METAR KAOH 252253Z AUTO 20014G23KT 10SM FEW039 SCT049 24/17 A3003 RMK AO2 SLP163 T02440167

More Conditions Fewer Conditions

10-Day Weather Forecast

Almanac

Astronomy

May. 25, 2015 Rise Set
Actual Time
Civil Twilight
Nautical Twilight
Astronomical Twilight
Moon
Length of Visible Light
Length of Day
Tomorrow will be .
, % of the Moon is Illuminated

Today's Extremes

State Highs State Lows

Community

WunderPhotos

Upload Photos

1,824,169 photos uploaded!

WunderBlogs® & News

Nearby

Air Quality

  Air Quality AQ Index Pollutant
Not available.

Snow Depth

Station Depth Elevation

Earthquake Activity

City Distance Mag. Time & Date
Minimum magnitude displayed is 2.5.

Coastal Water Temperatures

Place Temperature

Stations

Nearby Weather Stations

Station Location Temp. Windchill Dew Point Humidity Wind Precip. Elev Updated Type